createdAt,value
2023-03-12T00:00:01.485Z,3.25
2023-03-12T00:02:31.321Z,3.24
2023-03-12T00:05:01.095Z,3.22
2023-03-12T00:07:31.166Z,3.19
2023-03-12T00:10:00.961Z,3.21
2023-03-12T00:12:30.734Z,3.20
2023-03-12T00:15:04.678Z,3.20
2023-03-12T00:17:34.523Z,3.20
2023-03-12T00:20:04.922Z,3.21
2023-03-12T00:22:34.705Z,3.21
2023-03-12T00:25:06.347Z,3.19
2023-03-12T00:27:36.368Z,3.17
2023-03-12T00:30:13.551Z,3.13
2023-03-12T00:32:43.425Z,3.06
2023-03-12T00:35:13.534Z,3.03
2023-03-12T00:37:43.335Z,3.00
2023-03-12T00:40:14.885Z,2.96
2023-03-12T00:42:44.644Z,2.95
2023-03-12T00:45:17.387Z,2.93
2023-03-12T00:47:47.151Z,2.90
2023-03-12T00:50:16.991Z,2.87
2023-03-12T00:52:47.156Z,2.83
2023-03-12T00:55:16.952Z,2.83
2023-03-12T00:57:46.810Z,2.82
2023-03-12T01:00:21.291Z,2.81
2023-03-12T01:02:51.153Z,2.80
2023-03-12T01:05:21.095Z,2.79
2023-03-12T01:07:50.889Z,2.81
2023-03-12T01:10:29.403Z,2.81
2023-03-12T01:12:59.272Z,2.83
2023-03-12T01:15:32.735Z,2.80
2023-03-12T01:18:02.552Z,2.78
2023-03-12T01:20:32.390Z,2.77
2023-03-12T01:23:02.166Z,2.78
2023-03-12T01:25:34.157Z,2.79
2023-03-12T01:28:03.979Z,2.77
2023-03-12T01:30:37.245Z,2.77
2023-03-12T01:33:09.499Z,2.76
2023-03-12T01:35:40.698Z,2.73
2023-03-12T01:38:12.016Z,2.72
2023-03-12T01:40:44.004Z,2.68
2023-03-12T01:43:27.420Z,2.67
2023-03-12T01:46:08.684Z,2.63
2023-03-12T01:48:42.806Z,2.62
2023-03-12T01:51:15.301Z,2.60
2023-03-12T01:53:48.050Z,2.60
2023-03-12T01:56:19.421Z,2.62
2023-03-12T01:58:53.699Z,2.62
2023-03-12T02:01:27.027Z,2.62
2023-03-12T02:04:02.137Z,2.63
2023-03-12T02:06:40.166Z,2.64
2023-03-12T02:09:12.716Z,2.65
2023-03-12T02:11:42.490Z,2.65
2023-03-12T02:14:12.316Z,2.65
2023-03-12T02:16:45.569Z,2.67
2023-03-12T02:19:26.047Z,2.68
2023-03-12T02:21:56.283Z,2.67
2023-03-12T02:24:42.445Z,2.70
2023-03-12T02:27:15.598Z,2.69
2023-03-12T02:29:47.679Z,2.71
2023-03-12T02:32:24.158Z,2.71
2023-03-12T02:34:53.983Z,2.70
2023-03-12T02:37:23.763Z,2.72
2023-03-12T02:40:00.321Z,2.72
2023-03-12T02:42:32.949Z,2.75
2023-03-12T02:45:04.704Z,2.73
2023-03-12T02:47:34.512Z,2.75
2023-03-12T02:50:04.339Z,2.76
2023-03-12T02:52:36.361Z,2.78
2023-03-12T02:55:07.110Z,2.78
2023-03-12T02:57:40.247Z,2.78
2023-03-12T03:00:12.818Z,2.82
2023-03-12T03:02:43.276Z,2.84
2023-03-12T03:05:14.521Z,2.84
2023-03-12T03:07:44.411Z,2.86
2023-03-12T03:10:15.864Z,2.89
2023-03-12T03:12:48.280Z,2.90
2023-03-12T03:15:18.071Z,2.91
2023-03-12T03:17:47.841Z,2.94
2023-03-12T03:20:17.864Z,2.95
2023-03-12T03:22:51.866Z,2.98
2023-03-12T03:25:51.298Z,2.99
2023-03-12T03:32:48.044Z,3.03
2023-03-12T03:42:07.433Z,3.06
2023-03-12T03:44:45.379Z,3.08
2023-03-12T03:47:26.023Z,3.09
2023-03-12T03:49:56.113Z,3.11
2023-03-12T03:52:25.916Z,3.12
2023-03-12T03:54:57.172Z,3.11
2023-03-12T03:57:27.006Z,3.12
2023-03-12T04:00:03.502Z,3.13
2023-03-12T04:02:33.656Z,3.12
2023-03-12T04:05:03.827Z,3.13
2023-03-12T04:07:34.109Z,3.15
2023-03-12T04:10:04.167Z,3.16
2023-03-12T04:12:33.948Z,3.17
2023-03-12T04:15:10.805Z,3.15
2023-03-12T04:17:40.612Z,3.16
2023-03-12T04:20:12.546Z,3.15
2023-03-12T04:22:42.392Z,3.15
2023-03-12T04:25:12.587Z,3.17
2023-03-12T04:27:42.396Z,3.16
2023-03-12T04:30:16.382Z,3.17
2023-03-12T04:32:46.260Z,3.16
2023-03-12T04:35:16.077Z,3.16
2023-03-12T04:37:47.422Z,3.15
2023-03-12T04:40:19.385Z,3.17
2023-03-12T04:42:49.231Z,3.17
2023-03-12T04:45:21.792Z,3.16
2023-03-12T04:47:51.629Z,3.17
2023-03-12T04:50:21.750Z,3.16
2023-03-12T04:52:51.583Z,3.15
2023-03-12T04:55:21.567Z,3.13
2023-03-12T04:57:51.487Z,3.11
2023-03-12T05:00:27.504Z,3.09
2023-03-12T05:02:57.339Z,3.06
2023-03-12T05:05:27.472Z,3.05
2023-03-12T05:07:57.290Z,3.03
2023-03-12T05:10:29.350Z,3.06
2023-03-12T05:12:59.226Z,3.05
2023-03-12T05:15:31.660Z,3.05
2023-03-12T05:18:01.464Z,3.04
2023-03-12T05:20:31.324Z,3.06
2023-03-12T05:23:01.113Z,3.07
2023-03-12T05:25:30.942Z,3.08
2023-03-12T05:28:00.699Z,3.10
2023-03-12T05:30:33.088Z,3.10
2023-03-12T05:33:02.887Z,3.12
2023-03-12T05:35:32.697Z,3.15
2023-03-12T05:38:04.278Z,3.16
2023-03-12T05:40:34.265Z,3.18
2023-03-12T05:43:04.106Z,3.18
2023-03-12T05:45:37.077Z,3.21
2023-03-12T05:48:07.080Z,3.19
2023-03-12T05:50:39.640Z,3.21
2023-03-12T05:53:09.543Z,3.21
2023-03-12T05:55:40.314Z,3.19
2023-03-12T05:58:11.236Z,3.18
2023-03-12T06:00:45.250Z,3.20
2023-03-12T06:03:15.496Z,3.22
2023-03-12T06:05:48.223Z,3.21
2023-03-12T06:08:18.437Z,3.22
2023-03-12T06:10:51.359Z,3.24
2023-03-12T06:13:21.202Z,3.25
2023-03-12T06:15:53.713Z,3.26
2023-03-12T06:18:23.612Z,3.26
2023-03-12T06:20:53.524Z,3.28
2023-03-12T06:23:23.452Z,3.30
2023-03-12T06:25:53.222Z,3.32
2023-03-12T06:28:23.148Z,3.33
2023-03-12T06:30:58.430Z,3.33
2023-03-12T06:33:34.212Z,3.35
2023-03-12T06:36:06.186Z,3.37
2023-03-12T06:38:36.612Z,3.36
2023-03-12T06:41:09.464Z,3.36
2023-03-12T06:43:40.576Z,3.36
2023-03-12T06:46:17.075Z,3.39
2023-03-12T06:48:47.101Z,3.41
2023-03-12T06:51:18.909Z,3.43
2023-03-12T06:53:49.394Z,3.45
2023-03-12T06:56:21.383Z,3.48
2023-03-12T06:58:51.189Z,3.50
2023-03-12T07:01:23.814Z,3.51
2023-03-12T07:03:53.680Z,3.53
2023-03-12T07:06:27.929Z,3.54
2023-03-12T07:08:57.856Z,3.55
2023-03-12T07:11:27.667Z,3.56
2023-03-12T07:13:57.503Z,3.57
2023-03-12T07:16:31.556Z,3.57
2023-03-12T07:19:01.627Z,3.57
2023-03-12T07:21:32.236Z,3.54
2023-03-12T07:24:06.932Z,3.51
2023-03-12T07:26:37.686Z,3.45
2023-03-12T07:29:07.912Z,3.42
2023-03-12T07:31:40.574Z,3.41
2023-03-12T07:34:10.467Z,3.39
2023-03-12T07:36:40.429Z,3.35
2023-03-12T07:39:13.341Z,3.32
2023-03-12T07:41:43.138Z,3.31
2023-03-12T07:44:12.990Z,3.31
2023-03-12T07:46:45.939Z,3.33
2023-03-12T07:49:15.736Z,3.31
2023-03-12T07:51:45.574Z,3.32
2023-03-12T07:54:15.764Z,3.35
2023-03-12T07:56:46.105Z,3.35
2023-03-12T07:59:16.149Z,3.39
2023-03-12T08:01:48.846Z,3.42
2023-03-12T08:04:18.815Z,3.44
2023-03-12T08:06:48.707Z,3.47
2023-03-12T08:09:18.612Z,3.51
2023-03-12T08:11:48.443Z,3.56
2023-03-12T08:14:18.284Z,3.58
2023-03-12T08:16:50.666Z,3.60
2023-03-12T08:19:20.431Z,3.59
2023-03-12T08:21:50.233Z,3.59
2023-03-12T08:24:19.979Z,3.60
2023-03-12T08:26:50.375Z,3.59
2023-03-12T08:29:23.647Z,3.60
2023-03-12T08:32:05.760Z,3.58
2023-03-12T08:34:36.321Z,3.54
2023-03-12T08:37:06.663Z,3.50
2023-03-12T08:39:36.897Z,3.50
2023-03-12T08:42:07.930Z,3.50
2023-03-12T08:44:37.813Z,3.53
2023-03-12T08:47:10.328Z,3.54
2023-03-12T08:49:40.359Z,3.57
2023-03-12T08:52:10.345Z,3.59
2023-03-12T08:54:40.284Z,3.60
2023-03-12T08:57:10.761Z,3.61
2023-03-12T08:59:40.712Z,3.60
2023-03-12T09:02:14.200Z,3.61
2023-03-12T09:04:44.013Z,3.63
2023-03-12T09:07:20.053Z,3.62
2023-03-12T09:09:49.827Z,3.61
2023-03-12T09:12:19.598Z,3.64
2023-03-12T09:15:03.117Z,3.65
2023-03-12T09:17:36.406Z,3.64
2023-03-12T09:20:11.837Z,3.60
2023-03-12T09:22:41.658Z,3.61
2023-03-12T09:25:13.470Z,3.60
2023-03-12T09:27:44.882Z,3.62
2023-03-12T09:30:20.226Z,3.64
2023-03-12T09:32:52.774Z,3.64
2023-03-12T09:35:22.757Z,3.62
2023-03-12T09:37:52.912Z,3.61
2023-03-12T09:40:25.476Z,3.61
2023-03-12T09:42:58.892Z,3.62
2023-03-12T09:45:30.549Z,3.64
2023-03-12T09:48:05.878Z,3.66
2023-03-12T09:50:40.368Z,3.65
2023-03-12T09:53:21.772Z,3.66
2023-03-12T09:55:55.275Z,3.82
2023-03-12T09:58:30.291Z,3.89
2023-03-12T10:01:10.344Z,3.92
2023-03-12T10:04:01.574Z,3.91
2023-03-12T10:06:36.497Z,3.88
2023-03-12T10:09:20.072Z,3.87
2023-03-12T10:11:58.172Z,3.88
2023-03-12T10:14:41.332Z,3.89
2023-03-12T10:17:42.337Z,3.91
2023-03-12T10:20:31.618Z,3.93
2023-03-12T10:23:07.715Z,3.92
2023-03-12T10:25:46.399Z,3.95
2023-03-12T10:28:20.342Z,3.95
2023-03-12T10:30:54.841Z,3.97
2023-03-12T10:33:28.417Z,3.98
2023-03-12T10:36:02.429Z,4.00
2023-03-12T10:38:33.290Z,4.02
2023-03-12T10:41:03.384Z,4.04
2023-03-12T10:43:34.120Z,4.05
2023-03-12T10:46:18.743Z,4.09
2023-03-12T10:48:50.194Z,4.11
2023-03-12T10:51:22.623Z,4.15
2023-03-12T10:53:52.589Z,4.16
2023-03-12T10:56:23.462Z,4.19
2023-03-12T10:58:55.956Z,4.21
2023-03-12T11:01:27.530Z,4.24
2023-03-12T11:04:12.937Z,4.26
2023-03-12T11:06:45.443Z,4.26
2023-03-12T11:09:21.707Z,4.28
2023-03-12T11:11:54.768Z,4.31
2023-03-12T11:14:26.979Z,4.32
2023-03-12T11:16:58.070Z,4.33
2023-03-12T11:19:33.480Z,4.34
2023-03-12T11:22:11.764Z,4.37
2023-03-12T11:24:58.521Z,4.43
2023-03-12T11:27:39.255Z,4.46
2023-03-12T11:30:14.514Z,4.50
2023-03-12T11:32:48.491Z,4.53
2023-03-12T11:35:20.616Z,4.58
2023-03-12T11:38:03.954Z,4.61
2023-03-12T11:40:48.610Z,4.67
2023-03-12T11:43:43.219Z,4.73
2023-03-12T11:46:30.596Z,4.77
2023-03-12T11:49:16.441Z,4.84
2023-03-12T11:51:55.799Z,4.88
2023-03-12T11:54:51.143Z,4.93
2023-03-12T11:57:30.659Z,4.99
2023-03-12T12:00:13.938Z,5.04
2023-03-12T12:03:17.651Z,5.12
2023-03-12T12:06:03.745Z,5.20
2023-03-12T12:08:54.902Z,5.30
2023-03-12T12:11:38.236Z,5.40
2023-03-12T12:14:18.548Z,5.49
2023-03-12T12:17:04.927Z,5.59
2023-03-12T12:19:50.369Z,5.66
2023-03-12T12:22:38.526Z,5.76
2023-03-12T12:25:33.026Z,5.84
2023-03-12T12:28:28.925Z,5.90
2023-03-12T12:31:26.241Z,5.98
2023-03-12T12:34:15.435Z,6.03
2023-03-12T12:36:50.307Z,6.10
2023-03-12T12:39:27.024Z,6.19
2023-03-12T12:42:01.169Z,6.27
2023-03-12T12:44:38.687Z,6.34
2023-03-12T12:47:13.396Z,6.41
2023-03-12T12:49:48.035Z,6.51
2023-03-12T12:52:20.884Z,6.59
2023-03-12T12:55:01.214Z,6.66
2023-03-12T12:57:39.828Z,6.72
2023-03-12T13:00:27.573Z,6.82
2023-03-12T13:02:59.330Z,6.88
2023-03-12T13:05:31.442Z,6.95
2023-03-12T13:08:01.216Z,7.02
2023-03-12T13:10:57.044Z,7.10
2023-03-12T13:13:28.501Z,7.16
2023-03-12T13:16:24.012Z,7.25
2023-03-12T13:19:00.752Z,7.33
2023-03-12T13:21:40.538Z,7.41
2023-03-12T13:24:22.196Z,7.51
2023-03-12T13:26:57.836Z,7.58
2023-03-12T13:29:44.065Z,7.69
2023-03-12T13:33:03.171Z,7.77
2023-03-12T13:35:36.380Z,7.84
2023-03-12T13:38:14.616Z,7.89
2023-03-12T13:41:06.970Z,7.95
2023-03-12T13:43:51.999Z,8.00
2023-03-12T13:46:32.998Z,8.05
2023-03-12T13:49:09.451Z,8.11
2023-03-12T13:51:51.241Z,8.18
2023-03-12T13:54:22.545Z,8.21
2023-03-12T13:57:00.317Z,8.28
2023-03-12T13:59:32.473Z,8.35
2023-03-12T14:02:10.618Z,8.44
2023-03-12T14:04:45.102Z,8.56
2023-03-12T14:07:50.388Z,8.69
2023-03-12T14:10:38.443Z,8.79
2023-03-12T14:13:19.658Z,8.90
2023-03-12T14:15:58.284Z,8.98
2023-03-12T14:18:33.945Z,9.06
2023-03-12T14:21:11.316Z,9.10
2023-03-12T14:23:43.966Z,9.16
2023-03-12T14:26:24.600Z,9.21
2023-03-12T14:29:03.022Z,9.24
2023-03-12T14:31:34.607Z,9.26
2023-03-12T14:34:09.959Z,9.30
2023-03-12T14:36:47.818Z,9.33
2023-03-12T14:39:28.056Z,9.34
2023-03-12T14:42:01.800Z,9.36
2023-03-12T14:44:32.718Z,9.38
2023-03-12T14:47:04.417Z,9.41
2023-03-12T14:49:34.890Z,9.46
2023-03-12T14:52:08.160Z,9.49
2023-03-12T14:54:39.806Z,9.53
2023-03-12T14:57:15.990Z,9.56
2023-03-12T14:59:58.719Z,9.58
2023-03-12T15:02:29.610Z,9.58
2023-03-12T15:05:03.639Z,9.58
2023-03-12T15:07:39.708Z,9.56
2023-03-12T15:10:20.222Z,9.52
2023-03-12T15:12:50.289Z,9.51
2023-03-12T15:15:36.254Z,9.52
2023-03-12T15:18:09.283Z,9.51
2023-03-12T15:20:39.737Z,9.52
2023-03-12T15:23:15.040Z,9.53
2023-03-12T15:25:45.623Z,9.54
2023-03-12T15:28:32.439Z,9.56
2023-03-12T15:31:13.890Z,9.55
2023-03-12T15:33:44.981Z,9.56
2023-03-12T15:36:37.023Z,9.58
2023-03-12T15:39:30.575Z,9.58
2023-03-12T15:42:04.747Z,9.58
2023-03-12T15:44:46.425Z,9.59
2023-03-12T15:47:19.008Z,9.56
2023-03-12T15:49:56.351Z,9.56
2023-03-12T15:52:32.654Z,9.53
2023-03-12T15:55:22.507Z,9.54
2023-03-12T15:57:53.500Z,9.54
2023-03-12T16:00:36.264Z,9.55
2023-03-12T16:03:08.174Z,9.60
2023-03-12T16:05:42.925Z,9.61
2023-03-12T16:08:18.702Z,9.65
2023-03-12T16:10:56.218Z,9.66
2023-03-12T16:13:31.442Z,9.68
2023-03-12T16:16:02.246Z,9.67
2023-03-12T16:18:32.178Z,9.67
2023-03-12T16:21:03.466Z,9.67
2023-03-12T16:23:33.475Z,9.66
2023-03-12T16:26:07.723Z,9.63
2023-03-12T16:28:38.580Z,9.63
2023-03-12T16:31:15.632Z,9.61
2023-03-12T16:33:46.548Z,9.59
2023-03-12T16:36:19.342Z,9.57
2023-03-12T16:38:49.726Z,9.52
2023-03-12T16:41:22.824Z,9.49
2023-03-12T16:43:55.615Z,9.45
2023-03-12T16:46:33.271Z,9.45
2023-03-12T16:49:04.234Z,9.41
2023-03-12T16:51:34.086Z,9.37
2023-03-12T16:54:10.393Z,9.36
2023-03-12T16:56:46.380Z,9.33
2023-03-12T16:59:24.487Z,9.31
2023-03-12T17:01:54.524Z,9.28
2023-03-12T17:04:24.460Z,9.27
2023-03-12T17:06:54.278Z,9.27
2023-03-12T17:09:24.050Z,9.26
2023-03-12T17:11:56.849Z,9.26
2023-03-12T17:14:26.912Z,9.24
2023-03-12T17:16:57.356Z,9.23
2023-03-12T17:19:27.170Z,9.24
2023-03-12T17:21:57.340Z,9.23
2023-03-12T17:24:28.308Z,9.21
2023-03-12T17:27:00.856Z,9.18
2023-03-12T17:29:31.525Z,9.14
2023-03-12T17:32:01.437Z,9.10
2023-03-12T17:34:31.231Z,9.09
2023-03-12T17:37:01.754Z,9.06
2023-03-12T17:39:31.572Z,9.04
2023-03-12T17:42:04.011Z,9.04
2023-03-12T17:44:36.796Z,9.00
2023-03-12T17:47:09.643Z,9.00
2023-03-12T17:49:39.650Z,8.99
2023-03-12T17:52:09.502Z,8.99
2023-03-12T17:54:39.517Z,8.99
2023-03-12T17:57:11.893Z,8.99
2023-03-12T17:59:41.634Z,8.97
2023-03-12T18:02:13.556Z,8.98
2023-03-12T18:04:43.479Z,8.96
2023-03-12T18:07:14.072Z,8.94
2023-03-12T18:09:43.851Z,8.91
2023-03-12T18:12:16.236Z,8.89
2023-03-12T18:14:45.992Z,8.89
2023-03-12T18:17:15.833Z,8.87
2023-03-12T18:19:45.727Z,8.86
2023-03-12T18:22:15.972Z,8.85
2023-03-12T18:24:45.755Z,8.83
2023-03-12T18:27:18.122Z,8.85
2023-03-12T18:29:55.598Z,8.85
2023-03-12T18:32:25.459Z,8.84
2023-03-12T18:34:55.313Z,8.84
2023-03-12T18:37:25.242Z,8.84
2023-03-12T18:39:55.010Z,8.86
2023-03-12T18:42:27.364Z,8.86
2023-03-12T18:44:57.200Z,8.87
2023-03-12T18:47:26.950Z,8.88
2023-03-12T18:49:58.635Z,8.87
2023-03-12T18:52:28.464Z,8.87
2023-03-12T18:54:58.235Z,8.86
2023-03-12T18:57:30.670Z,8.86
2023-03-12T19:00:00.514Z,8.84
2023-03-12T19:02:34.859Z,8.86
2023-03-12T19:05:05.778Z,8.87
2023-03-12T19:07:38.536Z,8.87
2023-03-12T19:10:10.434Z,8.87
2023-03-12T19:12:52.125Z,8.87
2023-03-12T19:15:24.166Z,8.88
2023-03-12T19:17:54.471Z,8.88
2023-03-12T19:20:24.635Z,8.87
2023-03-12T19:22:55.194Z,8.85
2023-03-12T19:25:26.218Z,8.83
2023-03-12T19:27:58.687Z,8.84
2023-03-12T19:30:33.828Z,8.83
2023-03-12T19:33:09.226Z,8.82
2023-03-12T19:35:41.010Z,8.82
2023-03-12T19:38:12.216Z,8.80
2023-03-12T19:40:41.991Z,8.81
2023-03-12T19:43:14.403Z,8.79
2023-03-12T19:45:47.270Z,8.80
2023-03-12T19:48:20.015Z,8.80
2023-03-12T19:50:51.490Z,8.81
2023-03-12T19:53:24.655Z,8.79
2023-03-12T19:55:54.920Z,8.79
2023-03-12T19:58:27.332Z,8.79
2023-03-12T20:00:57.305Z,8.79
2023-03-12T20:03:27.172Z,8.80
2023-03-12T20:05:57.086Z,8.80
2023-03-12T20:08:28.024Z,8.79
2023-03-12T20:11:04.809Z,8.79
2023-03-12T20:13:38.133Z,8.77
2023-03-12T20:16:11.779Z,8.77
2023-03-12T20:18:42.015Z,8.77
2023-03-12T20:21:11.852Z,8.75
2023-03-12T20:23:41.638Z,8.78
2023-03-12T20:26:11.531Z,8.79
2023-03-12T20:28:44.791Z,8.81
2023-03-12T20:31:17.503Z,8.82
2023-03-12T20:33:47.468Z,8.83
2023-03-12T20:36:17.610Z,8.85
2023-03-12T20:38:50.506Z,8.85
2023-03-12T20:41:20.813Z,8.85
2023-03-12T20:43:58.328Z,8.85
2023-03-12T20:46:28.264Z,8.86
2023-03-12T20:48:58.254Z,8.85
2023-03-12T20:51:28.087Z,8.86
2023-03-12T20:53:57.846Z,8.86
2023-03-12T20:56:27.735Z,8.88
2023-03-12T20:59:00.153Z,8.90
2023-03-12T21:01:30.109Z,8.90
2023-03-12T21:04:00.744Z,8.91
2023-03-12T21:06:30.729Z,8.92
2023-03-12T21:09:01.207Z,8.93
2023-03-12T21:11:31.505Z,8.94
2023-03-12T21:14:03.881Z,8.95
2023-03-12T21:16:33.745Z,8.94
2023-03-12T21:19:03.571Z,8.95
2023-03-12T21:21:35.391Z,8.95
2023-03-12T21:24:05.175Z,8.96
2023-03-12T21:26:35.056Z,8.97
2023-03-12T21:29:08.996Z,8.98
2023-03-12T21:31:38.773Z,8.99
2023-03-12T21:34:09.645Z,8.99
2023-03-12T21:36:39.660Z,8.96
2023-03-12T21:39:09.457Z,8.97
2023-03-12T21:41:39.553Z,8.97
2023-03-12T21:44:12.529Z,8.98
2023-03-12T21:46:43.460Z,8.98
2023-03-12T21:49:14.221Z,9.00
2023-03-12T21:51:44.031Z,9.02
2023-03-12T21:54:14.181Z,9.03
2023-03-12T21:56:44.014Z,9.04
2023-03-12T21:59:16.420Z,9.04
2023-03-12T22:01:46.260Z,9.04
2023-03-12T22:04:16.147Z,9.02
2023-03-12T22:06:46.024Z,9.02
2023-03-12T22:09:15.824Z,9.01
2023-03-12T22:11:45.664Z,9.02
2023-03-12T22:14:18.054Z,9.02
2023-03-12T22:16:47.864Z,9.01
2023-03-12T22:19:19.295Z,9.02
2023-03-12T22:21:49.057Z,9.03
2023-03-12T22:24:18.826Z,9.05
2023-03-12T22:26:49.336Z,9.08
2023-03-12T22:29:21.784Z,9.10
2023-03-12T22:31:53.090Z,9.13
2023-03-12T22:34:22.857Z,9.15
2023-03-12T22:36:52.715Z,9.17
2023-03-12T22:39:22.489Z,9.20
2023-03-12T22:41:53.807Z,9.20
2023-03-12T22:44:26.172Z,9.22
2023-03-12T22:46:55.966Z,9.24
2023-03-12T22:49:25.796Z,9.24
2023-03-12T22:51:55.571Z,9.26
2023-03-12T22:54:25.336Z,9.24
2023-03-12T22:56:55.094Z,9.25
2023-03-12T22:59:27.515Z,9.26
2023-03-12T23:01:57.280Z,9.27
2023-03-12T23:04:27.289Z,9.28
2023-03-12T23:07:07.665Z,9.31
2023-03-12T23:09:43.318Z,9.32
2023-03-12T23:12:13.157Z,9.33
2023-03-12T23:14:45.533Z,9.34
2023-03-12T23:17:15.369Z,9.36
2023-03-12T23:19:45.574Z,9.36
2023-03-12T23:22:15.438Z,9.39
2023-03-12T23:24:45.186Z,9.42
2023-03-12T23:27:15.012Z,9.44
2023-03-12T23:29:47.386Z,9.45
2023-03-12T23:32:17.304Z,9.45
2023-03-12T23:34:47.088Z,9.46
2023-03-12T23:37:17.029Z,9.45
2023-03-12T23:39:54.492Z,9.45
2023-03-12T23:42:24.928Z,9.48
2023-03-12T23:44:57.284Z,9.48
2023-03-12T23:47:27.164Z,9.47
2023-03-12T23:49:56.920Z,9.48
2023-03-12T23:52:31.467Z,9.50
2023-03-12T23:55:01.216Z,9.52
2023-03-12T23:57:32.091Z,9.54
